Kirishima Maru No.5 — JD2506 — position and weather

sailwx.info

Track history (hours):
 
Tides and Currents Weather Stations Pressure Air Temp Water Temp Dewpoint Dewpoint Depression Visibility Wind Speed Wind Dir Waves Ship Positions

Kirishima Maru No.5

Last reported at 2015-Jan-26 09:33 UTC. Time now 2015-Jan-26 10:26 UTC.
Position N 35°06' E 139°44'.

Length 105 m; draft 5.3 m.

Type: Tanker. MMSI: 431000338.

Date/timePositionNaut miles runAvg speedWind from/ knotsBaromVisibWave heightAir tempDewpointWater temp
2015-Jan-26 09:33N 35°06' E 139°44'1313.1
2015-Jan-26 08:33N 35°19' E 139°44'1211.7
2015-Jan-26 07:33N 35°30' E 139°47'1 0.2
2015-Jan-25 23:33N 35°31' E 139°46'5 4.8
2015-Jan-25 22:33N 35°27' E 139°44'3 2.6
2015-Jan-25 21:32N 35°24' E 139°44'0 0.0
2015-Jan-25 20:32N 35°24' E 139°44'0 0.0
2015-Jan-25 19:26N 35°24' E 139°44'0 0.0
2015-Jan-25 18:32N 35°24' E 139°44'0 0.0
2015-Jan-25 17:32N 35°24' E 139°44'0 0.0
2015-Jan-25 16:32N 35°24' E 139°44'0 0.1
2015-Jan-25 15:32N 35°24' E 139°44'7 7.3
2015-Jan-25 14:34N 35°17' E 139°46'1313.0
2015-Jan-25 13:33N 35°04' E 139°44'1312.4
2015-Jan-25 12:30N 34°51' E 139°48'1211.8
2015-Jan-25 11:31N 34°54' E 140°02'  
2015-Jan-21 18:29N 34°49' E 139°53'24712.4
2015-Jan-20 22:32N 34°04' E 134°59'1413.4
2015-Jan-20 21:27N 34°19' E 134°59'1313.8
2015-Jan-20 20:32N 34°31' E 135°02'10 9.1
2015-Jan-20 19:29N 34°34' E 134°51'  
2015-Jan-18 08:30N 34°37' E 134°57'1010.1
2015-Jan-18 07:33N 34°29' E 135°04'1414.1
2015-Jan-18 06:32N 34°15' E 134°59'1414.2
2015-Jan-18 05:33N 34°01' E 134°59'25411.3
2015-Jan-17 07:06N 34°53' E 140°01'  
Track history (hours):
 
Tides and Currents Weather Stations Pressure Air Temp Water Temp Dewpoint Dewpoint Depression Visibility Wind Speed Wind Dir Waves Ship Positions

Kirishima Maru No.5

Last reported at 2015-Jan-26 09:33 UTC. Time now 2015-Jan-26 10:26 UTC.
Position N 35°06' E 139°44'.

Length 105 m; draft 5.3 m.

Type: Tanker. MMSI: 431000338.

Date/timePositionNaut miles runAvg speedWind from/ knotsBaromVisibWave heightAir tempDewpointWater temp
2015-Jan-26 09:33N 35°06' E 139°44'1313.1
2015-Jan-26 08:33N 35°19' E 139°44'1211.7
2015-Jan-26 07:33N 35°30' E 139°47'1 0.2
2015-Jan-25 23:33N 35°31' E 139°46'5 4.8
2015-Jan-25 22:33N 35°27' E 139°44'3 2.6
2015-Jan-25 21:32N 35°24' E 139°44'0 0.0
2015-Jan-25 20:32N 35°24' E 139°44'0 0.0
2015-Jan-25 19:26N 35°24' E 139°44'0 0.0
2015-Jan-25 18:32N 35°24' E 139°44'0 0.0
2015-Jan-25 17:32N 35°24' E 139°44'0 0.0
2015-Jan-25 16:32N 35°24' E 139°44'0 0.1
2015-Jan-25 15:32N 35°24' E 139°44'7 7.3
2015-Jan-25 14:34N 35°17' E 139°46'1313.0
2015-Jan-25 13:33N 35°04' E 139°44'1312.4
2015-Jan-25 12:30N 34°51' E 139°48'1211.8
2015-Jan-25 11:31N 34°54' E 140°02'  
2015-Jan-21 18:29N 34°49' E 139°53'24712.4
2015-Jan-20 22:32N 34°04' E 134°59'1413.4
2015-Jan-20 21:27N 34°19' E 134°59'1313.8
2015-Jan-20 20:32N 34°31' E 135°02'10 9.1
2015-Jan-20 19:29N 34°34' E 134°51'  
2015-Jan-18 08:30N 34°37' E 134°57'1010.1
2015-Jan-18 07:33N 34°29' E 135°04'1414.1
2015-Jan-18 06:32N 34°15' E 134°59'1414.2
2015-Jan-18 05:33N 34°01' E 134°59'25411.3
2015-Jan-17 07:06N 34°53' E 140°01'  

Dump ship's entire track history